sensor_id;sensor_type;location;lat;lon;timestamp;temperature;humidity
51619;DHT22;38518;53.164;5.430;2023-04-25T05:59:06;7.80;1.00
51619;DHT22;38518;53.164;5.430;2023-04-25T06:01:40;7.80;1.00
51619;DHT22;38518;53.164;5.430;2023-04-25T06:04:23;6.90;1.00
51619;DHT22;38518;53.164;5.430;2023-04-25T06:06:52;8.10;1.00
51619;DHT22;38518;53.164;5.430;2023-04-25T06:16:44;8.40;1.00
51619;DHT22;38518;53.164;5.430;2023-04-25T06:19:10;8.80;1.00
51619;DHT22;38518;53.164;5.430;2023-04-25T06:21:36;8.80;1.00
51619;DHT22;38518;53.164;5.430;2023-04-25T06:24:02;8.80;1.00
51619;DHT22;38518;53.164;5.430;2023-04-25T06:26:51;8.70;1.00
51619;DHT22;38518;53.164;5.430;2023-04-25T06:30:06;8.90;1.00
51619;DHT22;38518;53.164;5.430;2023-04-25T06:40:05;7.90;1.00
51619;DHT22;38518;53.164;5.430;2023-04-25T06:42:42;8.30;1.00
51619;DHT22;38518;53.164;5.430;2023-04-25T06:45:26;8.10;1.00
51619;DHT22;38518;53.164;5.430;2023-04-25T06:48:02;7.90;1.00
51619;DHT22;38518;53.164;5.430;2023-04-25T06:50:58;7.60;1.00
51619;DHT22;38518;53.164;5.430;2023-04-25T06:53:53;7.90;1.00
51619;DHT22;38518;53.164;5.430;2023-04-25T07:00:55;7.20;1.00
51619;DHT22;38518;53.164;5.430;2023-04-25T07:03:34;7.80;1.00
51619;DHT22;38518;53.164;5.430;2023-04-25T07:06:00;8.10;1.00
51619;DHT22;38518;53.164;5.430;2023-04-25T07:08:26;8.10;1.00
51619;DHT22;38518;53.164;5.430;2023-04-25T07:10:54;9.50;1.00
51619;DHT22;38518;53.164;5.430;2023-04-25T07:13:24;10.20;1.00
51619;DHT22;38518;53.164;5.430;2023-04-25T07:15:52;10.70;1.00
51619;DHT22;38518;53.164;5.430;2023-04-25T07:18:18;10.90;1.00
51619;DHT22;38518;53.164;5.430;2023-04-25T07:20:52;10.60;1.00
51619;DHT22;38518;53.164;5.430;2023-04-25T07:26:09;9.40;1.00
51619;DHT22;38518;53.164;5.430;2023-04-25T07:28:35;8.80;1.00
51619;DHT22;38518;53.164;5.430;2023-04-25T07:31:04;8.50;1.00
51619;DHT22;38518;53.164;5.430;2023-04-25T07:33:33;8.30;1.00
51619;DHT22;38518;53.164;5.430;2023-04-25T07:36:35;8.40;1.00
51619;DHT22;38518;53.164;5.430;2023-04-25T07:39:18;8.50;1.00
51619;DHT22;38518;53.164;5.430;2023-04-25T07:42:04;8.30;1.00
51619;DHT22;38518;53.164;5.430;2023-04-25T07:44:54;8.50;1.00
51619;DHT22;38518;53.164;5.430;2023-04-25T07:47:32;8.60;1.00
51619;DHT22;38518;53.164;5.430;2023-04-25T07:50:01;9.20;1.00
51619;DHT22;38518;53.164;5.430;2023-04-25T07:52:33;9.80;1.00
51619;DHT22;38518;53.164;5.430;2023-04-25T07:55:18;9.90;1.00
51619;DHT22;38518;53.164;5.430;2023-04-25T07:57:50;10.70;1.00
51619;DHT22;38518;53.164;5.430;2023-04-25T08:03:32;11.60;1.00
51619;DHT22;38518;53.164;5.430;2023-04-25T08:09:26;12.20;1.00
51619;DHT22;38518;53.164;5.430;2023-04-25T08:12:23;12.10;1.00
51619;DHT22;38518;53.164;5.430;2023-04-25T08:14:53;12.20;1.00
51619;DHT22;38518;53.164;5.430;2023-04-25T08:20:54;12.00;1.00
51619;DHT22;38518;53.164;5.430;2023-04-25T08:23:23;12.80;1.00
51619;DHT22;38518;53.164;5.430;2023-04-25T08:25:49;13.00;1.00
51619;DHT22;38518;53.164;5.430;2023-04-25T08:28:15;13.30;1.00
51619;DHT22;38518;53.164;5.430;2023-04-25T08:30:43;13.50;1.00
51619;DHT22;38518;53.164;5.430;2023-04-25T08:33:09;13.70;1.00
51619;DHT22;38518;53.164;5.430;2023-04-25T08:35:36;13.80;1.00
51619;DHT22;38518;53.164;5.430;2023-04-25T08:38:02;13.90;1.00
51619;DHT22;38518;53.164;5.430;2023-04-25T08:40:28;14.00;1.00
51619;DHT22;38518;53.164;5.430;2023-04-25T08:42:57;13.70;1.00
51619;DHT22;38518;53.164;5.430;2023-04-25T08:45:27;12.90;1.00
51619;DHT22;38518;53.164;5.430;2023-04-25T08:47:54;12.50;1.00
51619;DHT22;38518;53.164;5.430;2023-04-25T08:50:23;12.30;1.00
51619;DHT22;38518;53.164;5.430;2023-04-25T08:52:54;12.40;1.00
51619;DHT22;38518;53.164;5.430;2023-04-25T08:55:21;12.70;1.00
51619;DHT22;38518;53.164;5.430;2023-04-25T08:57:47;11.30;1.00
51619;DHT22;38518;53.164;5.430;2023-04-25T09:00:13;10.40;1.00
51619;DHT22;38518;53.164;5.430;2023-04-25T09:02:40;10.10;1.00
51619;DHT22;38518;53.164;5.430;2023-04-25T09:05:07;9.60;1.00
51619;DHT22;38518;53.164;5.430;2023-04-25T09:07:35;9.40;1.00
51619;DHT22;38518;53.164;5.430;2023-04-25T09:10:01;9.20;1.00
51619;DHT22;38518;53.164;5.430;2023-04-25T09:12:29;9.10;1.00
51619;DHT22;38518;53.164;5.430;2023-04-25T09:15:22;9.60;1.00
51619;DHT22;38518;53.164;5.430;2023-04-25T09:17:55;10.70;1.00
51619;DHT22;38518;53.164;5.430;2023-04-25T09:20:21;11.70;1.00
51619;DHT22;38518;53.164;5.430;2023-04-25T09:23:00;12.50;1.00
51619;DHT22;38518;53.164;5.430;2023-04-25T09:25:26;11.90;1.00
51619;DHT22;38518;53.164;5.430;2023-04-25T09:27:55;12.30;1.00
51619;DHT22;38518;53.164;5.430;2023-04-25T09:30:32;12.10;1.00
51619;DHT22;38518;53.164;5.430;2023-04-25T09:33:11;11.80;1.00
51619;DHT22;38518;53.164;5.430;2023-04-25T09:35:42;11.70;1.00
51619;DHT22;38518;53.164;5.430;2023-04-25T09:38:13;11.90;1.00
51619;DHT22;38518;53.164;5.430;2023-04-25T09:40:46;12.00;1.00
51619;DHT22;38518;53.164;5.430;2023-04-25T09:43:22;12.50;1.00
51619;DHT22;38518;53.164;5.430;2023-04-25T09:45:48;13.00;1.00
51619;DHT22;38518;53.164;5.430;2023-04-25T09:48:22;13.10;1.00
51619;DHT22;38518;53.164;5.430;2023-04-25T09:51:04;13.00;1.00
51619;DHT22;38518;53.164;5.430;2023-04-25T09:53:39;12.70;1.00
51619;DHT22;38518;53.164;5.430;2023-04-25T09:56:08;13.20;1.00
51619;DHT22;38518;53.164;5.430;2023-04-25T09:58:35;14.00;1.00
51619;DHT22;38518;53.164;5.430;2023-04-25T10:01:08;14.50;1.00
51619;DHT22;38518;53.164;5.430;2023-04-25T10:03:36;14.80;1.00
51619;DHT22;38518;53.164;5.430;2023-04-25T10:06:05;14.30;1.00
51619;DHT22;38518;53.164;5.430;2023-04-25T10:08:36;13.60;1.00
51619;DHT22;38518;53.164;5.430;2023-04-25T10:11:05;13.30;1.00
51619;DHT22;38518;53.164;5.430;2023-04-25T10:13:31;13.30;1.00
51619;DHT22;38518;53.164;5.430;2023-04-25T10:15:58;12.90;1.00
51619;DHT22;38518;53.164;5.430;2023-04-25T10:18:26;13.40;1.00
51619;DHT22;38518;53.164;5.430;2023-04-25T10:21:04;13.90;1.00
51619;DHT22;38518;53.164;5.430;2023-04-25T10:23:31;14.10;1.00
51619;DHT22;38518;53.164;5.430;2023-04-25T10:25:57;14.40;1.00
51619;DHT22;38518;53.164;5.430;2023-04-25T10:28:24;14.70;1.00
51619;DHT22;38518;53.164;5.430;2023-04-25T10:31:06;15.00;1.00
51619;DHT22;38518;53.164;5.430;2023-04-25T10:33:39;15.20;1.00
51619;DHT22;38518;53.164;5.430;2023-04-25T10:36:14;15.30;1.00
51619;DHT22;38518;53.164;5.430;2023-04-25T10:38:42;15.30;1.00
51619;DHT22;38518;53.164;5.430;2023-04-25T10:41:09;15.50;1.00
51619;DHT22;38518;53.164;5.430;2023-04-25T10:43:45;15.30;1.00
51619;DHT22;38518;53.164;5.430;2023-04-25T10:46:21;14.30;1.00
51619;DHT22;38518;53.164;5.430;2023-04-25T10:48:55;13.70;1.00
51619;DHT22;38518;53.164;5.430;2023-04-25T10:51:32;12.50;1.00
51619;DHT22;38518;53.164;5.430;2023-04-25T10:54:06;12.10;1.00
51619;DHT22;38518;53.164;5.430;2023-04-25T10:59:11;11.20;1.00
51619;DHT22;38518;53.164;5.430;2023-04-25T11:01:45;12.40;1.00
51619;DHT22;38518;53.164;5.430;2023-04-25T11:04:25;13.00;1.00
51619;DHT22;38518;53.164;5.430;2023-04-25T11:07:16;13.80;1.00
51619;DHT22;38518;53.164;5.430;2023-04-25T11:09:45;15.00;1.00
51619;DHT22;38518;53.164;5.430;2023-04-25T11:12:11;15.80;1.00
51619;DHT22;38518;53.164;5.430;2023-04-25T11:14:38;16.60;1.00
51619;DHT22;38518;53.164;5.430;2023-04-25T11:17:04;16.60;1.00
51619;DHT22;38518;53.164;5.430;2023-04-25T11:19:31;16.90;1.00
51619;DHT22;38518;53.164;5.430;2023-04-25T11:21:59;16.80;1.00
51619;DHT22;38518;53.164;5.430;2023-04-25T11:24:30;16.70;1.00
51619;DHT22;38518;53.164;5.430;2023-04-25T11:27:01;16.40;1.00
51619;DHT22;38518;53.164;5.430;2023-04-25T11:29:32;16.50;1.00
51619;DHT22;38518;53.164;5.430;2023-04-25T11:31:58;16.50;1.00
51619;DHT22;38518;53.164;5.430;2023-04-25T11:34:25;17.00;1.00
51619;DHT22;38518;53.164;5.430;2023-04-25T11:36:52;16.90;1.00
51619;DHT22;38518;53.164;5.430;2023-04-25T11:39:21;17.00;1.00
51619;DHT22;38518;53.164;5.430;2023-04-25T11:41:48;17.20;1.00
51619;DHT22;38518;53.164;5.430;2023-04-25T11:44:17;17.20;1.00
51619;DHT22;38518;53.164;5.430;2023-04-25T11:46:44;17.10;1.00
51619;DHT22;38518;53.164;5.430;2023-04-25T11:49:10;17.20;1.00
51619;DHT22;38518;53.164;5.430;2023-04-25T11:51:40;17.00;1.00
51619;DHT22;38518;53.164;5.430;2023-04-25T11:54:06;16.60;1.00
51619;DHT22;38518;53.164;5.430;2023-04-25T11:56:32;15.60;1.00
51619;DHT22;38518;53.164;5.430;2023-04-25T11:59:00;14.40;1.00
51619;DHT22;38518;53.164;5.430;2023-04-25T12:01:31;13.20;1.00
51619;DHT22;38518;53.164;5.430;2023-04-25T12:03:58;12.50;1.00
51619;DHT22;38518;53.164;5.430;2023-04-25T12:06:30;12.10;1.00
51619;DHT22;38518;53.164;5.430;2023-04-25T12:09:03;12.20;1.00
51619;DHT22;38518;53.164;5.430;2023-04-25T12:11:32;12.80;1.00
51619;DHT22;38518;53.164;5.430;2023-04-25T12:14:05;13.80;1.00
51619;DHT22;38518;53.164;5.430;2023-04-25T12:16:45;14.80;1.00
51619;DHT22;38518;53.164;5.430;2023-04-25T12:19:15;16.10;1.00
51619;DHT22;38518;53.164;5.430;2023-04-25T12:21:42;17.10;1.00
51619;DHT22;38518;53.164;5.430;2023-04-25T12:24:17;17.90;1.00
51619;DHT22;38518;53.164;5.430;2023-04-25T12:26:55;17.60;1.00
51619;DHT22;38518;53.164;5.430;2023-04-25T12:29:26;16.80;1.00
51619;DHT22;38518;53.164;5.430;2023-04-25T12:31:53;16.10;1.00
51619;DHT22;38518;53.164;5.430;2023-04-25T12:34:23;14.70;1.00
51619;DHT22;38518;53.164;5.430;2023-04-25T12:36:49;13.50;1.00
51619;DHT22;38518;53.164;5.430;2023-04-25T12:39:22;12.40;1.00
51619;DHT22;38518;53.164;5.430;2023-04-25T12:41:49;12.10;1.00
51619;DHT22;38518;53.164;5.430;2023-04-25T12:44:16;12.20;1.00
51619;DHT22;38518;53.164;5.430;2023-04-25T12:46:42;12.30;1.00
51619;DHT22;38518;53.164;5.430;2023-04-25T12:49:08;12.40;1.00
51619;DHT22;38518;53.164;5.430;2023-04-25T12:51:35;13.10;1.00
51619;DHT22;38518;53.164;5.430;2023-04-25T12:54:07;14.00;1.00
51619;DHT22;38518;53.164;5.430;2023-04-25T12:56:34;14.30;1.00
51619;DHT22;38518;53.164;5.430;2023-04-25T12:59:03;14.10;1.00
51619;DHT22;38518;53.164;5.430;2023-04-25T13:01:29;14.20;1.00
51619;DHT22;38518;53.164;5.430;2023-04-25T13:03:55;14.40;1.00
51619;DHT22;38518;53.164;5.430;2023-04-25T13:06:22;14.20;1.00
51619;DHT22;38518;53.164;5.430;2023-04-25T13:08:48;13.80;1.00
51619;DHT22;38518;53.164;5.430;2023-04-25T13:11:14;13.80;1.00
51619;DHT22;38518;53.164;5.430;2023-04-25T13:13:43;13.80;1.00
51619;DHT22;38518;53.164;5.430;2023-04-25T13:16:10;13.60;1.00
51619;DHT22;38518;53.164;5.430;2023-04-25T13:18:36;14.00;1.00
51619;DHT22;38518;53.164;5.430;2023-04-25T13:21:05;14.30;1.00
51619;DHT22;38518;53.164;5.430;2023-04-25T13:23:31;14.90;1.00
51619;DHT22;38518;53.164;5.430;2023-04-25T13:25:57;15.50;1.00
51619;DHT22;38518;53.164;5.430;2023-04-25T13:28:24;15.20;1.00
51619;DHT22;38518;53.164;5.430;2023-04-25T13:30:50;16.30;1.00
51619;DHT22;38518;53.164;5.430;2023-04-25T13:33:17;16.70;1.00
51619;DHT22;38518;53.164;5.430;2023-04-25T13:35:44;16.60;1.00
51619;DHT22;38518;53.164;5.430;2023-04-25T13:38:21;16.60;1.00
51619;DHT22;38518;53.164;5.430;2023-04-25T13:40:48;16.50;1.00
51619;DHT22;38518;53.164;5.430;2023-04-25T13:43:14;16.30;1.00
51619;DHT22;38518;53.164;5.430;2023-04-25T13:45:40;15.80;1.00
51619;DHT22;38518;53.164;5.430;2023-04-25T13:48:08;14.60;1.00
51619;DHT22;38518;53.164;5.430;2023-04-25T13:50:34;13.60;1.00
51619;DHT22;38518;53.164;5.430;2023-04-25T13:53:03;13.10;1.00
51619;DHT22;38518;53.164;5.430;2023-04-25T13:55:29;12.50;1.00
51619;DHT22;38518;53.164;5.430;2023-04-25T13:57:55;13.10;1.00
51619;DHT22;38518;53.164;5.430;2023-04-25T14:00:21;14.20;1.00
51619;DHT22;38518;53.164;5.430;2023-04-25T14:02:47;15.30;1.00
51619;DHT22;38518;53.164;5.430;2023-04-25T14:05:12;16.60;1.00
51619;DHT22;38518;53.164;5.430;2023-04-25T14:07:39;17.00;1.00
51619;DHT22;38518;53.164;5.430;2023-04-25T14:10:05;17.60;1.00
51619;DHT22;38518;53.164;5.430;2023-04-25T14:12:32;17.90;1.00
51619;DHT22;38518;53.164;5.430;2023-04-25T14:15:00;18.40;1.00
51619;DHT22;38518;53.164;5.430;2023-04-25T14:17:26;17.70;1.00
51619;DHT22;38518;53.164;5.430;2023-04-25T14:19:52;16.70;1.00
51619;DHT22;38518;53.164;5.430;2023-04-25T14:22:21;16.00;1.00
51619;DHT22;38518;53.164;5.430;2023-04-25T14:24:47;15.10;1.00
51619;DHT22;38518;53.164;5.430;2023-04-25T14:27:13;14.10;1.00
51619;DHT22;38518;53.164;5.430;2023-04-25T14:29:39;12.80;1.00
51619;DHT22;38518;53.164;5.430;2023-04-25T14:32:05;12.40;1.00
51619;DHT22;38518;53.164;5.430;2023-04-25T14:34:31;12.20;1.00
51619;DHT22;38518;53.164;5.430;2023-04-25T14:36:57;13.20;1.00
51619;DHT22;38518;53.164;5.430;2023-04-25T14:39:23;14.50;1.00
51619;DHT22;38518;53.164;5.430;2023-04-25T14:41:59;15.50;1.00
51619;DHT22;38518;53.164;5.430;2023-04-25T14:44:28;15.60;1.00
51619;DHT22;38518;53.164;5.430;2023-04-25T14:46:54;15.80;1.00
51619;DHT22;38518;53.164;5.430;2023-04-25T14:49:20;15.80;1.00
51619;DHT22;38518;53.164;5.430;2023-04-25T14:51:46;16.00;1.00
51619;DHT22;38518;53.164;5.430;2023-04-25T14:54:11;16.50;1.00
51619;DHT22;38518;53.164;5.430;2023-04-25T14:56:42;16.60;1.00
51619;DHT22;38518;53.164;5.430;2023-04-25T14:59:11;16.60;1.00
51619;DHT22;38518;53.164;5.430;2023-04-25T15:01:37;16.40;1.00
51619;DHT22;38518;53.164;5.430;2023-04-25T15:04:03;16.50;1.00
51619;DHT22;38518;53.164;5.430;2023-04-25T15:06:29;15.90;1.00
51619;DHT22;38518;53.164;5.430;2023-04-25T15:08:56;16.20;1.00
51619;DHT22;38518;53.164;5.430;2023-04-25T15:11:22;15.30;1.00
51619;DHT22;38518;53.164;5.430;2023-04-25T15:13:48;15.60;1.00
51619;DHT22;38518;53.164;5.430;2023-04-25T15:16:20;15.80;1.00
51619;DHT22;38518;53.164;5.430;2023-04-25T15:18:51;16.00;1.00
51619;DHT22;38518;53.164;5.430;2023-04-25T15:21:20;16.40;1.00
51619;DHT22;38518;53.164;5.430;2023-04-25T15:23:54;16.50;1.00
51619;DHT22;38518;53.164;5.430;2023-04-25T15:26:23;16.30;1.00
51619;DHT22;38518;53.164;5.430;2023-04-25T15:28:52;16.20;1.00
51619;DHT22;38518;53.164;5.430;2023-04-25T15:31:18;16.10;1.00
51619;DHT22;38518;53.164;5.430;2023-04-25T15:33:44;16.10;1.00
51619;DHT22;38518;53.164;5.430;2023-04-25T15:36:09;16.40;1.00
51619;DHT22;38518;53.164;5.430;2023-04-25T15:38:36;15.70;1.00
51619;DHT22;38518;53.164;5.430;2023-04-25T15:41:02;15.30;1.00
51619;DHT22;38518;53.164;5.430;2023-04-25T15:43:28;14.80;1.00
51619;DHT22;38518;53.164;5.430;2023-04-25T15:45:57;14.00;1.00
51619;DHT22;38518;53.164;5.430;2023-04-25T15:48:22;13.50;1.00
51619;DHT22;38518;53.164;5.430;2023-04-25T15:50:51;13.10;1.00
51619;DHT22;38518;53.164;5.430;2023-04-25T15:53:17;12.50;1.00
51619;DHT22;38518;53.164;5.430;2023-04-25T15:55:43;12.10;1.00
51619;DHT22;38518;53.164;5.430;2023-04-25T15:58:11;11.70;1.00
51619;DHT22;38518;53.164;5.430;2023-04-25T16:00:37;11.40;1.00
51619;DHT22;38518;53.164;5.430;2023-04-25T16:03:04;11.20;1.00
51619;DHT22;38518;53.164;5.430;2023-04-25T16:05:33;11.10;1.00
51619;DHT22;38518;53.164;5.430;2023-04-25T16:08:02;11.00;1.00
51619;DHT22;38518;53.164;5.430;2023-04-25T16:10:29;10.70;1.00
51619;DHT22;38518;53.164;5.430;2023-04-25T16:12:54;10.70;1.00
51619;DHT22;38518;53.164;5.430;2023-04-25T16:15:20;10.60;1.00
51619;DHT22;38518;53.164;5.430;2023-04-25T16:17:46;10.80;1.00
51619;DHT22;38518;53.164;5.430;2023-04-25T16:20:12;10.90;1.00
51619;DHT22;38518;53.164;5.430;2023-04-25T16:22:40;11.10;1.00
51619;DHT22;38518;53.164;5.430;2023-04-25T16:25:10;11.30;1.00
51619;DHT22;38518;53.164;5.430;2023-04-25T16:27:42;10.80;1.00
51619;DHT22;38518;53.164;5.430;2023-04-25T16:30:09;10.70;1.00
51619;DHT22;38518;53.164;5.430;2023-04-25T16:32:41;10.60;1.00
51619;DHT22;38518;53.164;5.430;2023-04-25T16:35:07;10.50;1.00
51619;DHT22;38518;53.164;5.430;2023-04-25T16:37:34;10.40;1.00
51619;DHT22;38518;53.164;5.430;2023-04-25T16:40:00;10.40;1.00
51619;DHT22;38518;53.164;5.430;2023-04-25T16:42:26;10.50;1.00
51619;DHT22;38518;53.164;5.430;2023-04-25T16:44:51;10.40;1.00
51619;DHT22;38518;53.164;5.430;2023-04-25T16:47:17;9.50;1.00
51619;DHT22;38518;53.164;5.430;2023-04-25T16:49:46;10.30;1.00
51619;DHT22;38518;53.164;5.430;2023-04-25T16:52:18;10.40;1.00
51619;DHT22;38518;53.164;5.430;2023-04-25T16:54:48;10.40;1.00
51619;DHT22;38518;53.164;5.430;2023-04-25T16:57:14;10.40;1.00
51619;DHT22;38518;53.164;5.430;2023-04-25T16:59:40;10.30;1.00
51619;DHT22;38518;53.164;5.430;2023-04-25T17:02:10;10.10;1.00
51619;DHT22;38518;53.164;5.430;2023-04-25T17:04:37;10.10;1.00
51619;DHT22;38518;53.164;5.430;2023-04-25T17:07:03;9.90;1.00
51619;DHT22;38518;53.164;5.430;2023-04-25T17:09:28;9.80;1.00
51619;DHT22;38518;53.164;5.430;2023-04-25T17:11:57;9.70;1.00
51619;DHT22;38518;53.164;5.430;2023-04-25T17:14:23;9.50;1.00
51619;DHT22;38518;53.164;5.430;2023-04-25T17:16:49;9.60;1.00
51619;DHT22;38518;53.164;5.430;2023-04-25T17:19:15;9.80;1.00
51619;DHT22;38518;53.164;5.430;2023-04-25T17:21:49;9.50;1.00
51619;DHT22;38518;53.164;5.430;2023-04-25T17:24:15;9.60;1.00
51619;DHT22;38518;53.164;5.430;2023-04-25T17:26:42;9.50;1.00
51619;DHT22;38518;53.164;5.430;2023-04-25T17:29:08;9.40;1.00
51619;DHT22;38518;53.164;5.430;2023-04-25T17:31:34;9.40;1.00
51619;DHT22;38518;53.164;5.430;2023-04-25T17:34:01;9.20;1.00
51619;DHT22;38518;53.164;5.430;2023-04-25T17:36:26;10.20;1.00
51619;DHT22;38518;53.164;5.430;2023-04-25T17:38:52;9.00;1.00
51619;DHT22;38518;53.164;5.430;2023-04-25T17:41:18;8.70;1.00
51619;DHT22;38518;53.164;5.430;2023-04-25T17:43:45;8.60;1.00
51619;DHT22;38518;53.164;5.430;2023-04-25T17:46:14;8.40;1.00
51619;DHT22;38518;53.164;5.430;2023-04-25T17:48:40;8.30;1.00
51619;DHT22;38518;53.164;5.430;2023-04-25T17:51:06;8.20;1.00
51619;DHT22;38518;53.164;5.430;2023-04-25T17:53:32;8.20;1.00
51619;DHT22;38518;53.164;5.430;2023-04-25T17:55:57;8.20;1.00
51619;DHT22;38518;53.164;5.430;2023-04-25T17:58:23;8.30;1.00
51619;DHT22;38518;53.164;5.430;2023-04-25T18:00:49;8.50;1.00
51619;DHT22;38518;53.164;5.430;2023-04-25T18:03:15;8.60;1.00
51619;DHT22;38518;53.164;5.430;2023-04-25T18:05:41;8.70;1.00
51619;DHT22;38518;53.164;5.430;2023-04-25T18:08:07;8.70;1.00
51619;DHT22;38518;53.164;5.430;2023-04-25T18:10:33;9.50;1.00
51619;DHT22;38518;53.164;5.430;2023-04-25T18:12:59;8.50;1.00
51619;DHT22;38518;53.164;5.430;2023-04-25T18:15:27;8.40;1.00
51619;DHT22;38518;53.164;5.430;2023-04-25T18:17:53;8.30;1.00
51619;DHT22;38518;53.164;5.430;2023-04-25T18:20:24;8.20;1.00
51619;DHT22;38518;53.164;5.430;2023-04-25T18:22:51;8.10;1.00
51619;DHT22;38518;53.164;5.430;2023-04-25T18:25:17;7.80;1.00
51619;DHT22;38518;53.164;5.430;2023-04-25T18:27:43;7.80;1.00
51619;DHT22;38518;53.164;5.430;2023-04-25T18:30:11;7.60;1.00
51619;DHT22;38518;53.164;5.430;2023-04-25T18:32:37;7.40;1.00
51619;DHT22;38518;53.164;5.430;2023-04-25T18:35:03;7.40;1.00
51619;DHT22;38518;53.164;5.430;2023-04-25T18:37:29;7.40;1.00
51619;DHT22;38518;53.164;5.430;2023-04-25T18:39:55;7.70;1.00
51619;DHT22;38518;53.164;5.430;2023-04-25T18:42:23;7.40;1.00
51619;DHT22;38518;53.164;5.430;2023-04-25T18:44:49;7.40;1.00
51619;DHT22;38518;53.164;5.430;2023-04-25T18:47:18;7.50;1.00
51619;DHT22;38518;53.164;5.430;2023-04-25T18:49:44;7.40;1.00
51619;DHT22;38518;53.164;5.430;2023-04-25T18:55:18;7.20;1.00
51619;DHT22;38518;53.164;5.430;2023-04-25T18:57:47;7.30;1.00
51619;DHT22;38518;53.164;5.430;2023-04-25T19:00:14;7.20;1.00
51619;DHT22;38518;53.164;5.430;2023-04-25T19:06:05;7.10;1.00
51619;DHT22;38518;53.164;5.430;2023-04-25T19:08:34;7.10;1.00
51619;DHT22;38518;53.164;5.430;2023-04-25T19:15:11;7.30;1.00
51619;DHT22;38518;53.164;5.430;2023-04-25T19:18:00;7.20;1.00
51619;DHT22;38518;53.164;5.430;2023-04-25T19:20:46;7.10;1.00
51619;DHT22;38518;53.164;5.430;2023-04-25T19:23:12;7.10;1.00
51619;DHT22;38518;53.164;5.430;2023-04-25T19:25:38;7.20;1.00
51619;DHT22;38518;53.164;5.430;2023-04-25T19:28:03;6.90;1.00
51619;DHT22;38518;53.164;5.430;2023-04-25T19:30:32;6.90;1.00
51619;DHT22;38518;53.164;5.430;2023-04-25T19:32:58;7.20;1.00
51619;DHT22;38518;53.164;5.430;2023-04-25T19:35:27;7.00;1.00
51619;DHT22;38518;53.164;5.430;2023-04-25T19:38:02;6.80;1.00
51619;DHT22;38518;53.164;5.430;2023-04-25T19:40:51;6.80;1.00
51619;DHT22;38518;53.164;5.430;2023-04-25T19:43:17;6.70;1.00
51619;DHT22;38518;53.164;5.430;2023-04-25T19:45:42;6.50;1.00
51619;DHT22;38518;53.164;5.430;2023-04-25T19:48:16;6.70;1.00
51619;DHT22;38518;53.164;5.430;2023-04-25T19:51:04;6.60;1.00
51619;DHT22;38518;53.164;5.430;2023-04-25T19:53:34;6.60;1.00
51619;DHT22;38518;53.164;5.430;2023-04-25T19:56:14;6.60;1.00
51619;DHT22;38518;53.164;5.430;2023-04-25T19:58:40;6.40;1.00
51619;DHT22;38518;53.164;5.430;2023-04-25T20:01:06;6.30;1.00
51619;DHT22;38518;53.164;5.430;2023-04-25T20:03:32;6.30;1.00
51619;DHT22;38518;53.164;5.430;2023-04-25T20:05:57;6.30;1.00
51619;DHT22;38518;53.164;5.430;2023-04-25T20:08:33;6.20;1.00
51619;DHT22;38518;53.164;5.430;2023-04-25T20:11:05;6.40;1.00
51619;DHT22;38518;53.164;5.430;2023-04-25T20:13:31;6.30;1.00
51619;DHT22;38518;53.164;5.430;2023-04-25T20:15:57;6.30;1.00
51619;DHT22;38518;53.164;5.430;2023-04-25T20:18:26;5.40;1.00
51619;DHT22;38518;53.164;5.430;2023-04-25T20:20:53;6.20;1.00
51619;DHT22;38518;53.164;5.430;2023-04-25T20:23:19;6.10;1.00
51619;DHT22;38518;53.164;5.430;2023-04-25T20:25:46;6.10;1.00
51619;DHT22;38518;53.164;5.430;2023-04-25T20:28:12;6.60;1.00
51619;DHT22;38518;53.164;5.430;2023-04-25T20:30:38;6.20;1.00
51619;DHT22;38518;53.164;5.430;2023-04-25T20:33:04;6.10;1.00
51619;DHT22;38518;53.164;5.430;2023-04-25T20:35:31;6.10;1.00
51619;DHT22;38518;53.164;5.430;2023-04-25T20:37:57;6.20;1.00
51619;DHT22;38518;53.164;5.430;2023-04-25T20:40:23;6.10;1.00
51619;DHT22;38518;53.164;5.430;2023-04-25T20:42:49;6.10;1.00
51619;DHT22;38518;53.164;5.430;2023-04-25T20:45:16;6.00;1.00
51619;DHT22;38518;53.164;5.430;2023-04-25T20:47:42;6.00;1.00
51619;DHT22;38518;53.164;5.430;2023-04-25T20:50:09;6.80;1.00
51619;DHT22;38518;53.164;5.430;2023-04-25T20:52:38;6.10;1.00
51619;DHT22;38518;53.164;5.430;2023-04-25T20:55:05;6.00;1.00
51619;DHT22;38518;53.164;5.430;2023-04-25T20:57:36;6.00;1.00
51619;DHT22;38518;53.164;5.430;2023-04-25T21:00:02;5.10;1.00
51619;DHT22;38518;53.164;5.430;2023-04-25T21:02:31;6.00;1.00
51619;DHT22;38518;53.164;5.430;2023-04-25T21:04:56;5.90;1.00
51619;DHT22;38518;53.164;5.430;2023-04-25T21:07:22;6.00;1.00
51619;DHT22;38518;53.164;5.430;2023-04-25T21:09:48;5.90;1.00
51619;DHT22;38518;53.164;5.430;2023-04-25T21:12:14;5.20;1.00
51619;DHT22;38518;53.164;5.430;2023-04-25T21:14:39;5.90;1.00
51619;DHT22;38518;53.164;5.430;2023-04-25T21:17:05;5.80;1.00
51619;DHT22;38518;53.164;5.430;2023-04-25T21:19:31;5.90;1.00
51619;DHT22;38518;53.164;5.430;2023-04-25T21:21:57;5.80;1.00
51619;DHT22;38518;53.164;5.430;2023-04-25T21:24:23;6.00;1.00
51619;DHT22;38518;53.164;5.430;2023-04-25T21:26:57;5.80;1.00
51619;DHT22;38518;53.164;5.430;2023-04-25T21:29:23;5.90;1.00
51619;DHT22;38518;53.164;5.430;2023-04-25T21:31:51;5.90;1.00
51619;DHT22;38518;53.164;5.430;2023-04-25T21:34:21;6.60;1.00
51619;DHT22;38518;53.164;5.430;2023-04-25T21:36:47;6.30;1.00
51619;DHT22;38518;53.164;5.430;2023-04-25T21:39:18;5.70;1.00
51619;DHT22;38518;53.164;5.430;2023-04-25T21:41:44;5.70;1.00
51619;DHT22;38518;53.164;5.430;2023-04-25T21:44:10;6.10;1.00
51619;DHT22;38518;53.164;5.430;2023-04-25T21:46:37;5.60;1.00
51619;DHT22;38518;53.164;5.430;2023-04-25T21:49:13;5.60;1.00
51619;DHT22;38518;53.164;5.430;2023-04-25T21:51:39;5.60;1.00
51619;DHT22;38518;53.164;5.430;2023-04-25T21:54:05;6.60;1.00
51619;DHT22;38518;53.164;5.430;2023-04-25T21:56:31;5.70;1.00
51619;DHT22;38518;53.164;5.430;2023-04-25T21:58:57;5.70;1.00
51619;DHT22;38518;53.164;5.430;2023-04-25T22:01:24;5.70;1.00
51619;DHT22;38518;53.164;5.430;2023-04-25T22:03:51;5.70;1.00
51619;DHT22;38518;53.164;5.430;2023-04-25T22:06:16;5.70;1.00
51619;DHT22;38518;53.164;5.430;2023-04-25T22:08:42;5.80;1.00
51619;DHT22;38518;53.164;5.430;2023-04-25T22:11:08;5.80;1.00
51619;DHT22;38518;53.164;5.430;2023-04-25T22:13:34;5.80;1.00
51619;DHT22;38518;53.164;5.430;2023-04-25T22:16:00;5.70;1.00
51619;DHT22;38518;53.164;5.430;2023-04-25T22:18:26;5.70;1.00
51619;DHT22;38518;53.164;5.430;2023-04-25T22:20:52;6.20;1.00
51619;DHT22;38518;53.164;5.430;2023-04-25T22:23:21;5.70;1.00
51619;DHT22;38518;53.164;5.430;2023-04-25T22:25:47;5.60;1.00
51619;DHT22;38518;53.164;5.430;2023-04-25T22:28:12;5.60;1.00
51619;DHT22;38518;53.164;5.430;2023-04-25T22:30:39;6.40;1.00
51619;DHT22;38518;53.164;5.430;2023-04-25T22:33:04;5.80;1.00
51619;DHT22;38518;53.164;5.430;2023-04-25T22:35:30;6.20;1.00
51619;DHT22;38518;53.164;5.430;2023-04-25T22:37:56;5.60;1.00
51619;DHT22;38518;53.164;5.430;2023-04-25T22:40:22;5.60;1.00
51619;DHT22;38518;53.164;5.430;2023-04-25T22:42:48;5.50;1.00
51619;DHT22;38518;53.164;5.430;2023-04-25T22:45:14;5.50;1.00
51619;DHT22;38518;53.164;5.430;2023-04-25T22:47:40;6.40;1.00